Time;durP1;ratioP1;P1;durP2;ratioP2;P2;SDS_P1;SDS_P2;PMS_P1;PMS_P2;Temp;Humidity;BMP_temperature;BMP_pressure;BME280_temperature;BME280_humidity;BME280_pressure;Samples;Min_cycle;Max_cycle;Signal;HPM_P1;HPM_P2
2023/04/13 06:31:45;;;;;;;3.47;0.93;;;8.60;92.20;;;;;;6826981;23;20062;-78
2023/04/13 06:34:47;;;;;;;6.10;1.05;;;8.70;91.80;;;;;;6198617;28;20046;-78
2023/04/13 06:37:49;;;;;;;4.07;0.73;;;8.70;91.90;;;;;;6198789;28;20051;-78
2023/04/13 06:40:50;;;;;;;6.20;1.00;;;8.70;91.70;;;;;;6193830;28;20050;-77
2023/04/13 06:43:53;;;;;;;5.57;1.10;;;8.70;91.90;;;;;;6198843;28;20061;-80
2023/04/13 06:46:57;;;;;;;4.07;1.00;;;8.80;91.90;;;;;;6198712;28;20043;-78
2023/04/13 06:50:05;;;;;;;4.18;1.05;;;9.00;91.40;;;;;;6200826;28;20050;-78
2023/04/13 06:53:07;;;;;;;5.32;1.05;;;9.00;91.30;;;;;;6201594;28;20049;-80
2023/04/13 06:56:09;;;;;;;3.90;0.90;;;9.00;91.40;;;;;;6203316;28;20061;-77
2023/04/13 06:59:11;;;;;;;6.13;0.90;;;9.10;91.30;;;;;;6202963;28;20049;-79
2023/04/13 07:02:14;;;;;;;4.70;1.00;;;9.00;91.50;;;;;;6202566;28;20537;-80
2023/04/13 07:05:17;;;;;;;4.85;1.02;;;8.90;91.40;;;;;;6202970;28;20463;-77
2023/04/13 07:08:19;;;;;;;3.78;1.10;;;8.90;91.30;;;;;;6193148;28;20051;-79
2023/04/13 07:11:20;;;;;;;4.68;0.90;;;9.10;91.70;;;;;;6180504;28;20047;-79
2023/04/13 07:14:22;;;;;;;3.85;1.20;;;8.90;91.90;;;;;;6178755;28;20054;-80
2023/04/13 07:17:25;;;;;;;6.63;1.10;;;9.00;91.80;;;;;;6178548;28;20492;-77
2023/04/13 07:20:27;;;;;;;6.07;0.93;;;8.80;92.00;;;;;;6178308;28;20051;-79
2023/04/13 07:23:29;;;;;;;5.05;0.88;;;8.80;92.30;;;;;;6190864;28;20050;-78
2023/04/13 07:26:31;;;;;;;6.40;1.00;;;9.00;92.40;;;;;;6202173;28;20404;-78
2023/04/13 07:29:33;;;;;;;6.32;1.10;;;8.80;92.80;;;;;;6204458;28;20050;-79
2023/04/13 07:32:36;;;;;;;5.82;1.05;;;9.00;92.50;;;;;;6184622;28;20066;-78
2023/04/13 07:35:38;;;;;;;6.97;1.15;;;9.00;92.30;;;;;;6175094;28;20042;-80
2023/04/13 07:38:41;;;;;;;5.32;1.23;;;9.00;92.50;;;;;;6154623;29;20420;-79
2023/04/13 07:41:45;;;;;;;8.05;1.38;;;9.00;92.30;;;;;;6154056;29;20079;-79
2023/04/13 07:44:46;;;;;;;4.18;1.15;;;9.10;92.60;;;;;;6172193;28;20054;-79
2023/04/13 07:47:52;;;;;;;5.72;1.45;;;9.10;92.30;;;;;;6177877;28;20050;-78
2023/04/13 07:50:54;;;;;;;5.93;0.98;;;9.20;92.10;;;;;;6177840;28;20051;-78
2023/04/13 07:53:56;;;;;;;5.57;1.15;;;9.30;91.90;;;;;;6177738;28;20050;-80
2023/04/13 07:56:57;;;;;;;6.53;1.40;;;9.40;92.10;;;;;;6177628;28;20134;-79
2023/04/13 07:59:59;;;;;;;5.90;1.33;;;9.40;91.70;;;;;;6156559;28;20062;-79
2023/04/13 08:03:02;;;;;;;4.50;1.17;;;9.30;91.80;;;;;;6152825;28;20043;-78
2023/04/13 08:06:06;;;;;;;4.55;0.98;;;9.20;92.50;;;;;;6153977;28;20047;-78
2023/04/13 08:09:08;;;;;;;5.32;1.25;;;9.20;92.60;;;;;;6153679;29;20043;-76
2023/04/13 08:12:10;;;;;;;4.47;1.10;;;9.40;92.50;;;;;;6154939;29;20136;-78
2023/04/13 08:15:12;;;;;;;5.78;1.17;;;9.50;92.50;;;;;;6153395;29;20051;-78
2023/04/13 08:18:15;;;;;;;4.38;1.08;;;9.60;92.40;;;;;;6154339;28;20047;-80
2023/04/13 08:21:17;;;;;;;4.90;1.10;;;9.60;92.40;;;;;;6153212;29;20051;-80
2023/04/13 08:24:20;;;;;;;5.55;1.38;;;9.60;91.90;;;;;;6152899;29;20420;-79
2023/04/13 08:27:22;;;;;;;5.97;1.50;;;9.70;91.90;;;;;;6153074;29;20489;-80
2023/04/13 08:30:24;;;;;;;6.15;1.17;;;9.90;91.80;;;;;;6159865;28;20050;-78
2023/04/13 08:33:27;;;;;;;7.22;1.30;;;9.80;91.80;;;;;;6176526;28;20047;-79
2023/04/13 08:36:30;;;;;;;5.95;1.42;;;9.80;91.90;;;;;;6166572;28;20409;-80
2023/04/13 08:39:32;;;;;;;6.80;1.30;;;9.90;91.80;;;;;;6152990;29;20055;-78
2023/04/13 08:42:35;;;;;;;6.43;1.25;;;9.70;91.00;;;;;;6152698;29;20314;-80
2023/04/13 08:45:41;;;;;;;6.43;1.40;;;9.70;92.00;;;;;;6152604;29;20130;-77
2023/04/13 08:48:47;;;;;;;6.13;1.50;;;9.80;90.90;;;;;;6163493;28;20295;-80
2023/04/13 08:51:50;;;;;;;8.40;1.42;;;9.80;90.80;;;;;;6176359;28;20054;-78
2023/04/13 08:54:54;;;;;;;7.22;1.58;;;9.90;90.80;;;;;;6177948;28;20057;-79
2023/04/13 08:57:58;;;;;;;7.55;1.63;;;10.10;90.80;;;;;;6190966;28;20102;-78
2023/04/13 09:01:00;;;;;;;6.57;1.27;;;10.30;90.10;;;;;;6184453;28;20053;-78
2023/04/13 09:04:09;;;;;;;6.10;1.30;;;10.50;90.00;;;;;;6175888;28;20050;-79
2023/04/13 09:07:15;;;;;;;6.82;1.35;;;10.60;89.50;;;;;;6175973;28;20499;-79
2023/04/13 09:10:19;;;;;;;6.43;1.25;;;10.70;89.40;;;;;;6175983;28;20047;-77
2023/04/13 09:13:21;;;;;;;9.05;1.63;;;10.80;88.60;;;;;;6175041;28;20057;-78
2023/04/13 09:16:23;;;;;;;9.07;1.60;;;10.80;88.30;;;;;;6175552;28;20522;-79
2023/04/13 09:19:33;;;;;;;6.72;1.42;;;11.00;87.90;;;;;;6175614;28;20051;-78
2023/04/13 09:22:35;;;;;;;6.72;1.55;;;11.20;88.40;;;;;;6175513;28;20051;-77
2023/04/13 09:25:37;;;;;;;6.40;1.35;;;11.10;89.60;;;;;;6161924;28;20047;-78
2023/04/13 09:28:48;;;;;;;8.48;1.70;;;11.00;87.80;;;;;;6151512;29;20054;-79
2023/04/13 09:31:50;;;;;;;5.32;1.30;;;10.80;87.70;;;;;;6151266;28;20051;-76
2023/04/13 09:35:08;;;;;;;5.18;1.20;;;10.50;89.10;;;;;;6151419;29;20047;-78
2023/04/13 09:38:14;;;;;;;6.10;1.20;;;10.30;89.80;;;;;;6150201;29;20069;-80
2023/04/13 09:41:16;;;;;;;7.38;1.48;;;10.30;89.60;;;;;;6152054;29;20058;-80
2023/04/13 09:44:21;;;;;;;5.28;1.20;;;10.20;89.60;;;;;;6172073;28;20046;-78
2023/04/13 09:47:22;;;;;;;6.72;1.17;;;10.30;90.20;;;;;;6176173;28;20125;-80
2023/04/13 09:50:27;;;;;;;5.15;1.35;;;10.40;90.30;;;;;;6176242;28;20054;-78
2023/04/13 09:53:41;;;;;;;6.68;1.45;;;10.60;90.20;;;;;;6176313;28;20510;-79
2023/04/13 09:56:51;;;;;;;6.32;1.17;;;10.70;89.60;;;;;;6176011;28;20058;-80
2023/04/13 09:59:54;;;;;;;5.35;1.48;;;10.90;90.50;;;;;;6152711;29;20074;-78
2023/04/13 10:03:00;;;;;;;5.65;1.40;;;10.80;90.00;;;;;;6152547;29;20489;-79
2023/04/13 10:06:06;;;;;;;8.35;1.40;;;11.00;88.60;;;;;;6168384;28;20133;-79
2023/04/13 10:09:09;;;;;;;7.47;1.50;;;11.30;85.80;;;;;;6175689;28;20110;-79
2023/04/13 10:12:12;;;;;;;6.60;1.10;;;11.30;87.40;;;;;;6176543;28;20051;-78
2023/04/13 10:15:30;;;;;;;6.78;1.15;;;11.30;86.50;;;;;;6174273;28;20082;-83
2023/04/13 10:18:42;;;;;;;6.13;1.60;;;11.50;86.70;;;;;;6157781;28;20173;-79
2023/04/13 10:21:50;;;;;;;7.20;1.38;;;11.70;85.10;;;;;;6175709;28;20415;-82
2023/04/13 10:24:52;;;;;;;5.25;1.40;;;11.80;84.50;;;;;;6156257;28;20085;-80
2023/04/13 10:27:58;;;;;;;4.07;1.10;;;11.30;85.70;;;;;;6178013;28;20050;-80
2023/04/13 10:31:04;;;;;;;5.97;1.48;;;11.20;90.20;;;;;;6180302;28;20485;-81
2023/04/13 10:34:06;;;;;;;4.82;1.17;;;11.10;90.90;;;;;;6182859;28;20054;-79
2023/04/13 10:37:19;;;;;;;6.80;1.67;;;11.00;90.50;;;;;;6184278;28;20460;-80
2023/04/13 10:40:21;;;;;;;;;;;10.80;91.30;;;;;;6184854;28;20476;-78
2023/04/13 10:43:28;;;;;;;6.18;1.20;;;10.80;90.50;;;;;;6176941;28;19922;-80
2023/04/13 10:46:32;;;;;;;3.72;1.15;;;11.00;90.00;;;;;;6155146;29;20058;-80
2023/04/13 10:49:35;;;;;;;7.28;1.25;;;10.70;91.70;;;;;;6155277;29;20088;-79
2023/04/13 10:52:38;;;;;;;4.97;1.02;;;10.50;92.90;;;;;;6154938;29;20047;-80
2023/04/13 10:55:40;;;;;;;5.25;1.20;;;10.20;92.60;;;;;;6163389;28;20058;-78
2023/04/13 10:58:42;;;;;;;3.50;1.00;;;10.40;92.60;;;;;;6163968;29;20054;-77
2023/04/13 11:01:44;;;;;;;3.92;1.00;;;10.80;90.90;;;;;;6161476;29;20043;-75
2023/04/13 11:04:48;;;;;;;6.88;1.17;;;11.00;89.10;;;;;;6155984;28;20059;-79
2023/04/13 11:07:52;;;;;;;5.18;1.23;;;11.10;88.20;;;;;;6154671;29;20051;-78
2023/04/13 11:10:56;;;;;;;5.60;1.33;;;11.30;88.90;;;;;;6154597;29;20062;-78
2023/04/13 11:13:58;;;;;;;5.85;1.35;;;11.20;88.00;;;;;;6154717;29;20047;-77
2023/04/13 11:17:00;;;;;;;5.25;1.00;;;11.40;89.10;;;;;;6154916;28;20047;-76
2023/04/13 11:20:06;;;;;;;5.20;1.20;;;11.20;89.40;;;;;;6154229;29;20146;-76
2023/04/13 11:23:17;;;;;;;8.10;1.40;;;11.30;89.40;;;;;;6154444;28;20102;-75
2023/04/13 11:26:19;;;;;;;4.45;1.13;;;11.20;89.90;;;;;;6154232;29;20139;-77
2023/04/13 11:29:21;;;;;;;5.95;1.20;;;11.30;89.00;;;;;;6154250;29;20058;-79
2023/04/13 11:32:25;;;;;;;4.18;0.95;;;11.20;89.00;;;;;;6153963;28;20063;-75
2023/04/13 11:35:27;;;;;;;6.85;1.30;;;11.20;88.10;;;;;;6153729;28;20055;-77
2023/04/13 11:38:31;;;;;;;6.20;1.52;;;11.30;89.80;;;;;;6154822;28;20430;-81
2023/04/13 11:41:39;;;;;;;5.93;1.20;;;11.80;90.40;;;;;;6154362;29;20413;-82
2023/04/13 11:44:44;;;;;;;4.25;1.20;;;12.00;88.50;;;;;;6158949;28;20046;-80
2023/04/13 11:47:47;;;;;;;5.47;1.23;;;11.90;87.50;;;;;;6173165;28;20051;-80
2023/04/13 11:50:49;;;;;;;4.25;1.33;;;12.00;86.80;;;;;;6154505;28;20047;-79
2023/04/13 11:53:53;;;;;;;6.63;1.50;;;12.00;87.10;;;;;;6156519;28;20051;-79
2023/04/13 11:56:55;;;;;;;5.75;1.30;;;12.00;87.30;;;;;;6161539;28;20051;-80
2023/04/13 11:59:57;;;;;;;5.93;1.40;;;12.00;86.10;;;;;;6150681;28;20043;-80
2023/04/13 12:03:00;;;;;;;5.57;1.70;;;11.70;86.20;;;;;;6150106;28;20062;-77
2023/04/13 12:06:02;;;;;;;6.32;1.30;;;11.80;85.50;;;;;;6172974;28;20500;-78
2023/04/13 12:09:08;;;;;;;6.57;1.50;;;11.80;85.30;;;;;;6156831;28;20485;-80
2023/04/13 12:12:16;;;;;;;7.22;1.60;;;11.90;85.10;;;;;;6173161;28;20047;-78
2023/04/13 12:15:24;;;;;;;5.53;1.13;;;12.00;85.60;;;;;;6164624;28;20055;-78
2023/04/13 12:18:26;;;;;;;9.75;2.00;;;12.00;85.10;;;;;;6153087;28;20043;-78
2023/04/13 12:21:28;;;;;;;7.43;1.50;;;11.70;85.30;;;;;;6164884;28;20055;-78
2023/04/13 12:24:36;;;;;;;4.80;1.42;;;11.50;87.00;;;;;;6175938;28;20507;-78
2023/04/13 12:27:40;;;;;;;5.32;1.40;;;11.00;91.60;;;;;;6162925;28;20046;-76
2023/04/13 12:30:42;;;;;;;6.35;1.58;;;10.70;95.00;;;;;;6172189;28;20081;-81
2023/04/13 12:33:44;;;;;;;4.78;1.45;;;10.40;96.00;;;;;;6149814;29;20058;-77
2023/04/13 12:36:46;;;;;;;6.95;1.60;;;10.60;96.90;;;;;;6151565;28;20540;-78
2023/04/13 12:39:50;;;;;;;8.07;1.40;;;10.60;98.00;;;;;;6132567;28;20058;-77
2023/04/13 12:42:51;;;;;;;6.85;1.40;;;10.60;99.10;;;;;;6155429;28;20058;-78
2023/04/13 12:45:54;;;;;;;5.85;1.40;;;10.50;99.90;;;;;;6173781;28;20187;-76
2023/04/13 12:48:56;;;;;;;5.07;1.23;;;11.20;99.90;;;;;;6173162;28;20424;-80
2023/04/13 12:51:58;;;;;;;6.20;1.40;;;11.50;97.90;;;;;;6175539;28;20047;-77
2023/04/13 12:55:02;;;;;;;7.70;1.50;;;11.90;95.90;;;;;;6163656;28;20053;-80
2023/04/13 12:58:03;;;;;;;5.95;1.52;;;11.50;98.80;;;;;;6164804;28;20409;-77
2023/04/13 13:01:05;;;;;;;5.65;1.50;;;12.00;97.60;;;;;;6149712;28;20055;-79
2023/04/13 13:04:07;;;;;;;5.82;1.50;;;12.10;96.80;;;;;;6148974;28;20055;-80
2023/04/13 13:07:09;;;;;;;8.90;1.70;;;11.60;99.90;;;;;;6149194;28;20051;-79
2023/04/13 13:10:12;;;;;;;5.65;1.50;;;11.80;99.90;;;;;;6157905;28;20043;-79
2023/04/13 13:13:16;;;;;;;7.15;1.50;;;12.20;96.30;;;;;;6166844;28;20054;-79
2023/04/13 13:16:18;;;;;;;5.55;1.52;;;12.20;95.60;;;;;;6156125;28;20153;-78
2023/04/13 13:19:20;;;;;;;7.38;1.50;;;12.10;96.90;;;;;;6150413;28;20097;-80
2023/04/13 13:22:22;;;;;;;4.88;1.15;;;12.00;95.50;;;;;;6148889;29;20044;-79
2023/04/13 13:25:25;;;;;;;5.55;1.27;;;11.90;94.90;;;;;;6148969;29;20405;-80
2023/04/13 13:28:27;;;;;;;5.60;1.50;;;11.80;94.10;;;;;;6148711;29;20523;-80
2023/04/13 13:31:29;;;;;;;5.82;1.15;;;11.60;95.40;;;;;;6148470;28;20070;-80
2023/04/13 13:34:31;;;;;;;3.92;1.10;;;11.50;95.00;;;;;;6149712;29;20058;-80
2023/04/13 13:37:32;;;;;;;4.40;1.08;;;11.30;95.90;;;;;;6156069;29;20051;-81
2023/04/13 13:40:35;;;;;;;4.10;0.90;;;11.10;95.40;;;;;;6160058;29;20136;-81
2023/04/13 13:43:38;;;;;;;4.47;1.20;;;11.00;95.60;;;;;;6160721;28;20062;-80
2023/04/13 13:46:39;;;;;;;2.67;0.70;;;10.90;95.50;;;;;;6159285;29;20055;-82
2023/04/13 13:49:42;;;;;;;3.88;1.00;;;10.90;95.80;;;;;;6159090;29;20401;-79
2023/04/13 13:52:43;;;;;;;3.28;1.00;;;10.90;96.50;;;;;;6157396;29;20047;-81
2023/04/13 13:55:48;;;;;;;3.63;1.10;;;11.00;96.70;;;;;;6163249;28;20161;-80
2023/04/13 13:58:50;;;;;;;3.38;1.00;;;10.90;96.50;;;;;;6180616;28;20058;-77
2023/04/13 14:01:52;;;;;;;4.13;0.90;;;11.00;96.50;;;;;;6187290;28;20061;-80
2023/04/13 14:04:54;;;;;;;5.15;1.13;;;11.10;98.00;;;;;;6188268;28;20061;-80
2023/04/13 14:07:56;;;;;;;3.70;0.80;;;10.80;98.40;;;;;;6179229;28;20404;-77
2023/04/13 14:10:59;;;;;;;5.18;1.08;;;10.70;98.90;;;;;;6179946;28;20069;-78
2023/04/13 14:14:01;;;;;;;;;;;10.90;98.50;;;;;;6182019;28;20053;-78
2023/04/13 14:17:03;;;;;;;5.72;0.90;;;11.00;98.20;;;;;;6180289;28;19926;-79
2023/04/13 14:20:08;;;;;;;3.45;1.13;;;11.10;98.50;;;;;;6173285;28;20055;-78
2023/04/13 14:23:10;;;;;;;5.63;1.13;;;11.10;98.40;;;;;;6139044;28;20058;-77
2023/04/13 14:26:14;;;;;;;4.25;1.08;;;11.00;97.60;;;;;;6170161;28;20050;-78
2023/04/13 14:29:16;;;;;;;4.78;1.00;;;11.10;97.80;;;;;;6179513;28;20058;-79
2023/04/13 14:32:19;;;;;;;3.08;0.90;;;11.10;97.90;;;;;;6177476;28;20055;-78
2023/04/13 14:35:21;;;;;;;4.93;1.05;;;11.00;98.60;;;;;;6165606;28;20054;-78
2023/04/13 14:38:23;;;;;;;4.32;0.93;;;10.90;98.60;;;;;;6155999;28;20051;-80
2023/04/13 14:41:26;;;;;;;3.63;1.30;;;10.90;98.20;;;;;;6155270;28;20410;-79
2023/04/13 14:44:28;;;;;;;4.30;1.20;;;10.70;99.90;;;;;;6156264;29;20051;-77
2023/04/13 14:47:30;;;;;;;4.75;1.30;;;10.80;99.90;;;;;;6156123;29;20058;-77
2023/04/13 14:50:32;;;;;;;7.07;1.60;;;10.80;99.90;;;;;;6173336;28;20412;-80
2023/04/13 14:53:34;;;;;;;4.18;1.35;;;10.50;99.90;;;;;;6175649;28;20510;-79
2023/04/13 14:56:38;;;;;;;4.82;1.52;;;9.80;99.90;;;;;;6179834;28;20061;-78
2023/04/13 14:59:40;;;;;;;4.57;1.20;;;9.70;99.90;;;;;;6180367;28;20054;-77
2023/04/13 15:02:42;;;;;;;4.15;1.30;;;9.90;99.90;;;;;;6173189;28;20044;-79
2023/04/13 15:05:45;;;;;;;5.25;1.42;;;10.00;99.90;;;;;;6170733;28;20098;-79
2023/04/13 15:08:47;;;;;;;;;;;10.00;99.90;;;;;;6156551;29;20496;-79
2023/04/13 15:11:50;;;;;;;4.47;1.00;;;10.20;99.90;;;;;;6174936;28;19948;-77
2023/04/13 15:14:52;;;;;;;4.38;1.20;;;10.30;99.90;;;;;;6174766;28;20055;-78
2023/04/13 15:17:54;;;;;;;4.45;0.80;;;10.10;99.90;;;;;;6164683;28;20043;-80
2023/04/13 15:20:56;;;;;;;3.47;0.80;;;9.50;99.90;;;;;;6163003;28;20477;-80
2023/04/13 15:24:01;;;;;;;2.80;0.70;;;9.50;99.90;;;;;;6166741;28;20051;-80
2023/04/13 15:27:04;;;;;;;2.30;0.65;;;9.50;99.90;;;;;;6174539;28;20054;-79
2023/04/13 15:30:09;;;;;;;2.13;0.60;;;9.30;99.90;;;;;;6161214;28;20066;-77
2023/04/13 15:33:11;;;;;;;5.28;1.25;;;9.20;99.90;;;;;;6173331;28;20051;-77
2023/04/13 15:36:15;;;;;;;2.80;0.65;;;9.30;99.90;;;;;;6162884;28;20065;-79
2023/04/13 15:39:17;;;;;;;2.15;0.47;;;9.30;99.90;;;;;;6172476;28;20051;-78
2023/04/13 15:42:21;;;;;;;1.75;0.60;;;9.20;99.90;;;;;;6166216;28;20112;-77
2023/04/13 15:45:23;;;;;;;;;;;8.90;99.90;;;;;;6174289;28;20137;-76
2023/04/13 15:48:25;;;;;;;21.75;9.43;;;8.90;99.90;;;;;;6151838;28;20287;-78
2023/04/13 15:51:28;;;;;;;5.30;2.10;;;9.10;99.90;;;;;;6166298;28;20130;-78
2023/04/13 15:54:30;;;;;;;2.47;0.80;;;9.30;99.90;;;;;;6152021;28;20059;-80
2023/04/13 15:57:33;;;;;;;2.50;0.68;;;9.40;99.90;;;;;;6155217;28;20110;-79
2023/04/13 16:00:35;;;;;;;1.60;0.60;;;9.50;99.90;;;;;;6162628;28;20046;-79
2023/04/13 16:03:37;;;;;;;2.78;0.70;;;9.60;99.90;;;;;;6173340;28;20047;-78
2023/04/13 16:06:40;;;;;;;3.55;0.95;;;9.70;99.90;;;;;;6169314;28;20057;-81
2023/04/13 16:09:43;;;;;;;3.17;0.98;;;9.60;99.90;;;;;;6162673;28;20499;-78
2023/04/13 16:12:48;;;;;;;2.65;0.82;;;9.90;99.90;;;;;;6174303;28;20055;-78
2023/04/13 16:15:56;;;;;;;1.80;0.73;;;10.20;99.90;;;;;;6173958;28;20054;-77
2023/04/13 16:18:59;;;;;;;2.15;0.60;;;10.30;99.90;;;;;;6171708;28;20055;-77
2023/04/13 16:22:05;;;;;;;3.33;0.80;;;10.30;99.90;;;;;;6166194;28;20051;-79
2023/04/13 16:25:10;;;;;;;1.77;0.60;;;10.30;99.90;;;;;;6157837;28;20099;-77
2023/04/13 16:28:15;;;;;;;2.78;0.68;;;10.10;99.90;;;;;;6162133;28;20042;-78
2023/04/13 16:31:17;;;;;;;2.63;0.90;;;10.20;99.90;;;;;;6170978;28;20484;-77
2023/04/13 16:34:19;;;;;;;5.88;1.05;;;10.20;99.90;;;;;;6183691;28;20499;-78
2023/04/13 16:37:33;;;;;;;2.27;1.00;;;10.20;99.90;;;;;;6185535;28;20137;-77
2023/04/13 16:40:35;;;;;;;3.85;1.35;;;10.20;99.90;;;;;;6197581;28;20081;-77
2023/04/13 16:43:39;;;;;;;3.17;1.35;;;10.20;99.90;;;;;;6197244;28;20512;-76
2023/04/13 16:46:41;;;;;;;3.80;1.33;;;10.30;99.90;;;;;;6186758;28;20062;-75
2023/04/13 16:49:46;;;;;;;5.63;1.73;;;10.10;99.90;;;;;;6175496;28;20494;-77
2023/04/13 16:52:48;;;;;;;3.80;1.35;;;10.00;99.90;;;;;;6177763;28;20209;-80
2023/04/13 16:55:55;;;;;;;3.58;1.10;;;10.10;99.90;;;;;;6203953;28;20050;-77
2023/04/13 16:58:58;;;;;;;2.88;1.20;;;10.50;99.90;;;;;;6202552;28;20192;-78
2023/04/13 17:02:00;;;;;;;5.18;1.33;;;10.50;99.90;;;;;;6204695;28;20057;-78
2023/04/13 17:05:03;;;;;;;6.28;1.38;;;10.30;99.90;;;;;;6188406;28;20432;-76
2023/04/13 17:08:08;;;;;;;4.85;1.40;;;10.60;99.90;;;;;;6178848;28;20061;-77
2023/04/13 17:11:10;;;;;;;3.60;1.17;;;10.50;99.90;;;;;;6183973;28;20042;-79
2023/04/13 17:14:13;;;;;;;3.15;1.17;;;10.50;99.90;;;;;;6197221;28;20054;-76
2023/04/13 17:17:15;;;;;;;4.88;1.17;;;10.60;99.90;;;;;;6196913;28;20065;-77
2023/04/13 17:20:19;;;;;;;3.35;0.93;;;10.40;99.90;;;;;;6196515;28;20414;-76
2023/04/13 17:23:22;;;;;;;4.18;1.20;;;10.40;99.90;;;;;;6186125;28;20132;-80
2023/04/13 17:26:23;;;;;;;3.50;1.20;;;10.30;99.90;;;;;;6172796;28;20218;-77
2023/04/13 17:29:27;;;;;;;4.57;1.52;;;10.10;99.90;;;;;;6172812;28;20055;-79
2023/04/13 17:32:34;;;;;;;3.80;1.20;;;9.80;99.90;;;;;;6171271;28;20050;-76
2023/04/13 17:35:36;;;;;;;3.90;1.17;;;9.80;99.90;;;;;;6172323;28;20143;-77
2023/04/13 17:38:41;;;;;;;3.60;1.05;;;9.90;99.90;;;;;;6172851;28;20141;-76
2023/04/13 17:41:43;;;;;;;3.45;1.10;;;10.10;99.90;;;;;;6172598;28;20495;-78
2023/04/13 17:44:46;;;;;;;3.50;1.10;;;10.10;99.90;;;;;;6199096;28;20717;-77
2023/04/13 17:47:48;;;;;;;5.93;1.10;;;10.10;99.90;;;;;;6221122;28;20053;-77
2023/04/13 17:50:50;;;;;;;2.97;1.20;;;9.90;99.90;;;;;;6186883;28;20043;-77
2023/04/13 17:53:53;;;;;;;4.43;1.20;;;10.00;99.90;;;;;;6177626;28;20081;-77
2023/04/13 17:57:00;;;;;;;3.50;1.20;;;10.00;99.90;;;;;;6215506;28;20132;-77
2023/04/13 18:00:05;;;;;;;3.92;1.13;;;9.80;99.90;;;;;;6221413;28;20047;-75
2023/04/13 18:03:10;;;;;;;3.05;0.95;;;9.80;99.90;;;;;;6220742;28;20196;-77
2023/04/13 18:06:12;;;;;;;2.90;1.00;;;9.80;99.90;;;;;;6221505;28;20164;-78
2023/04/13 18:09:14;;;;;;;2.67;1.00;;;9.80;99.90;;;;;;6203089;28;20065;-78
2023/04/13 18:12:16;;;;;;;4.95;1.40;;;9.90;99.90;;;;;;6202016;28;20406;-77
2023/04/13 18:15:19;;;;;;;3.88;1.30;;;9.80;99.90;;;;;;6223094;28;20546;-80
2023/04/13 18:18:23;;;;;;;4.78;1.50;;;9.70;99.90;;;;;;6188095;28;20050;-78
2023/04/13 18:21:25;;;;;;;6.32;2.35;;;9.60;99.90;;;;;;6204137;28;20073;-79
2023/04/13 18:24:26;;;;;;;4.53;1.50;;;9.40;99.90;;;;;;6201882;28;20526;-77
2023/04/13 18:27:28;;;;;;;3.63;1.48;;;9.40;99.90;;;;;;6201554;28;20182;-78
2023/04/13 18:30:32;;;;;;;5.22;1.77;;;9.20;99.90;;;;;;6199568;28;20057;-77
2023/04/13 18:33:34;;;;;;;5.45;1.95;;;9.10;99.90;;;;;;6169193;28;20193;-78
2023/04/13 18:36:36;;;;;;;6.20;2.10;;;8.90;99.90;;;;;;6171125;28;20485;-77
2023/04/13 18:39:38;;;;;;;5.82;1.85;;;9.10;99.90;;;;;;6171772;28;20095;-77
2023/04/13 18:42:40;;;;;;;4.75;1.60;;;9.30;99.90;;;;;;6172951;28;20530;-78
2023/04/13 18:45:44;;;;;;;7.60;1.95;;;9.20;99.90;;;;;;6173580;28;20538;-75
2023/04/13 18:48:48;;;;;;;7.80;2.00;;;9.20;99.90;;;;;;6175234;28;20062;-76
2023/04/13 18:51:50;;;;;;;5.80;2.22;;;9.00;99.90;;;;;;6175392;28;20051;-79
2023/04/13 18:54:52;;;;;;;6.32;2.13;;;9.10;99.90;;;;;;6174990;28;20051;-78
2023/04/13 18:57:54;;;;;;;6.82;2.00;;;9.30;99.90;;;;;;6176093;28;20062;-83
2023/04/13 19:00:58;;;;;;;5.22;2.30;;;9.30;99.90;;;;;;6175203;28;20062;-81
2023/04/13 19:04:01;;;;;;;7.15;2.70;;;9.40;99.90;;;;;;6173560;28;20050;-81
2023/04/13 19:07:07;;;;;;;8.93;2.70;;;9.10;99.90;;;;;;6152424;29;20082;-81
2023/04/13 19:10:10;;;;;;;5.93;2.33;;;8.90;99.90;;;;;;6151701;29;20051;-81
2023/04/13 19:13:13;;;;;;;5.03;1.77;;;8.80;99.90;;;;;;6164221;28;20069;-82
2023/04/13 19:16:17;;;;;;;6.15;2.10;;;8.70;99.90;;;;;;6175844;28;20190;-79
2023/04/13 19:19:19;;;;;;;6.70;2.20;;;8.50;99.90;;;;;;6175737;28;20102;-82
2023/04/13 19:22:21;;;;;;;5.55;2.03;;;8.40;99.90;;;;;;6178511;28;20049;-80
2023/04/13 19:25:24;;;;;;;5.50;1.80;;;8.40;99.90;;;;;;6175180;28;20082;-81
2023/04/13 19:28:27;;;;;;;4.60;1.40;;;8.40;99.90;;;;;;6174557;28;20073;-79
2023/04/13 19:31:30;;;;;;;5.75;1.48;;;8.30;99.90;;;;;;6173376;28;20050;-79
2023/04/13 19:34:32;;;;;;;6.63;2.50;;;8.30;99.90;;;;;;6173487;28;20407;-76
2023/04/13 19:37:34;;;;;;;5.53;2.35;;;8.30;99.90;;;;;;6172704;28;20051;-78
2023/04/13 19:40:36;;;;;;;6.32;2.40;;;8.30;99.90;;;;;;6170483;28;20047;-78
2023/04/13 19:43:38;;;;;;;5.88;2.10;;;8.40;99.90;;;;;;6175664;28;20051;-78
2023/04/13 19:46:41;;;;;;;5.30;2.00;;;8.50;99.90;;;;;;6161724;28;20062;-83
2023/04/13 19:49:43;;;;;;;3.95;1.80;;;8.40;99.90;;;;;;6174587;28;20480;-82
2023/04/13 19:52:46;;;;;;;6.05;1.90;;;8.40;99.90;;;;;;6173415;28;20072;-79
2023/04/13 19:55:50;;;;;;;5.87;2.73;;;8.40;99.90;;;;;;6175460;28;20061;-85
2023/04/13 19:58:52;;;;;;;6.60;2.92;;;8.30;99.90;;;;;;6173252;28;20154;-76
2023/04/13 20:01:56;;;;;;;7.30;2.35;;;8.20;99.90;;;;;;6180234;28;20051;-77
2023/04/13 20:04:58;;;;;;;5.40;2.05;;;8.20;99.90;;;;;;6186323;28;20051;-78
2023/04/13 20:08:00;;;;;;;6.35;2.10;;;8.20;99.90;;;;;;6179949;28;20062;-77
2023/04/13 20:11:02;;;;;;;5.75;1.60;;;8.10;99.90;;;;;;6174139;28;20092;-78
2023/04/13 20:14:04;;;;;;;4.57;1.80;;;8.00;99.90;;;;;;6178271;28;20057;-77
2023/04/13 20:17:07;;;;;;;6.65;2.33;;;8.10;99.90;;;;;;6182090;28;20051;-77
2023/04/13 20:20:12;;;;;;;7.00;2.10;;;8.20;99.90;;;;;;6179695;28;20465;-78
2023/04/13 20:23:14;;;;;;;5.75;1.58;;;8.20;99.90;;;;;;6173463;28;20062;-78
2023/04/13 20:26:16;;;;;;;4.95;1.80;;;8.10;99.90;;;;;;6173772;28;20145;-76
2023/04/13 20:29:20;;;;;;;5.00;1.50;;;8.20;99.90;;;;;;6173428;28;20051;-77
2023/04/13 20:32:23;;;;;;;3.80;1.10;;;8.10;99.90;;;;;;6186169;28;20054;-76
2023/04/13 20:35:26;;;;;;;7.13;2.33;;;8.10;99.90;;;;;;6197233;28;20061;-76
2023/04/13 20:38:29;;;;;;;7.17;2.30;;;8.10;99.90;;;;;;6197133;28;20525;-78
2023/04/13 20:41:31;;;;;;;5.53;1.60;;;8.20;99.90;;;;;;6195406;28;20055;-77
2023/04/13 20:44:36;;;;;;;7.82;1.80;;;8.30;99.90;;;;;;6197406;28;20136;-76
2023/04/13 20:47:41;;;;;;;6.68;1.50;;;8.40;99.90;;;;;;6197507;28;20065;-76
2023/04/13 20:50:44;;;;;;;6.18;1.58;;;8.40;99.90;;;;;;6202163;28;20527;-77
2023/04/13 20:53:46;;;;;;;;;;;8.50;99.90;;;;;;6198783;28;20138;-79
2023/04/13 20:56:48;;;;;;;4.82;1.33;;;8.40;99.90;;;;;;6199918;28;19951;-78
2023/04/13 20:59:51;;;;;;;6.65;1.65;;;8.40;99.90;;;;;;6200033;28;20097;-77
2023/04/13 21:02:56;;;;;;;5.90;1.80;;;8.40;99.90;;;;;;6198358;28;20050;-78
2023/04/13 21:05:59;;;;;;;5.28;1.58;;;8.50;99.90;;;;;;6197170;28;20136;-78
2023/04/13 21:09:03;;;;;;;4.38;1.73;;;8.50;99.90;;;;;;6196429;28;20043;-78
2023/04/13 21:12:05;;;;;;;5.78;1.80;;;8.40;99.90;;;;;;6196267;28;20088;-78
2023/04/13 21:15:08;;;;;;;6.35;2.05;;;8.00;99.90;;;;;;6195991;28;20073;-77
2023/04/13 21:18:12;;;;;;;6.43;2.45;;;7.90;99.90;;;;;;6196724;28;20053;-77
2023/04/13 21:21:13;;;;;;;6.45;2.30;;;7.90;99.90;;;;;;6196084;28;20057;-78
2023/04/13 21:24:15;;;;;;;6.00;2.10;;;8.10;99.90;;;;;;6192518;28;20058;-76
2023/04/13 21:27:17;;;;;;;6.38;2.35;;;8.10;99.90;;;;;;6196443;28;20065;-75
2023/04/13 21:30:20;;;;;;;6.50;2.70;;;8.20;99.90;;;;;;6195603;28;20503;-76
2023/04/13 21:33:23;;;;;;;6.03;2.08;;;8.20;99.90;;;;;;6193536;28;20058;-75
2023/04/13 21:36:26;;;;;;;6.75;2.40;;;8.10;99.90;;;;;;6196058;28;20081;-75
2023/04/13 21:39:28;;;;;;;4.43;2.23;;;8.20;99.90;;;;;;6196131;28;20491;-77
2023/04/13 21:42:30;;;;;;;5.55;2.30;;;8.20;99.90;;;;;;6193912;28;20070;-76
2023/04/13 21:45:32;;;;;;;5.78;2.55;;;8.20;99.90;;;;;;6196202;28;20046;-76
2023/04/13 21:48:35;;;;;;;6.00;2.60;;;8.20;99.90;;;;;;6187851;28;20484;-78
2023/04/13 21:51:37;;;;;;;7.20;3.17;;;8.30;99.90;;;;;;6187356;28;20542;-77
2023/04/13 21:54:39;;;;;;;5.13;2.58;;;8.30;99.90;;;;;;6195675;28;20050;-77
2023/04/13 21:57:41;;;;;;;6.43;2.75;;;8.30;99.90;;;;;;6195309;28;20047;-79
